This is the latest recevied weather packets stored in our database for station/object HS5AU-13. If no packets are shown the sender has not sent any weather packets the latest 10 day(s).
| Time | Temp. | Humidity | Pressure | Rain* | Wind** | Luminosity | Snow |
|---|---|---|---|---|---|---|---|
| 1788599707 | 23.33° C | 93% | 1002.6 hPa | 0 mm | - | 44 W/m² | - |
| 1788599107 | 23.89° C | 92% | 1002.8 hPa | 0 mm | - | 63 W/m² | - |
| 1788598507 | 24.44° C | 93% | 1003.1 hPa | 0 mm | - | 78 W/m² | - |
| 1788597907 | 25.56° C | 86% | 1004.8 hPa | 0 mm | - | 96 W/m² | - |
| 1788597306 | 25.56° C | 87% | 1004.5 hPa | 0 mm | - | 106 W/m² | - |
| 1788596706 | 25° C | 85% | 1003.8 hPa | 0 mm | - | 137 W/m² | - |
| 1788596106 | 25° C | 89% | 1003.6 hPa | 0 mm | - | 143 W/m² | - |
| 1788595506 | 24.44° C | 93% | 1002.6 hPa | 0 mm | - | 175 W/m² | - |
| 1788594906 | 23.89° C | 99% | 1001.3 hPa | 0 mm | - | 182 W/m² | - |
| 1788594306 | 23.89° C | 98% | 1001.7 hPa | 0 mm | - | 125 W/m² | - |
| 1788593707 | 23.89° C | 98% | 1001.9 hPa | 0 mm | - | 145 W/m² | - |
| 1788593106 | 23.89° C | 98% | 1002.2 hPa | 0 mm | - | 140 W/m² | - |
| 1788592506 | 24.44° C | 98% | 1002.2 hPa | 0 mm | - | 138 W/m² | - |
| 1788591906 | 24.44° C | 96% | 1002.3 hPa | 0 mm | - | 61 W/m² | - |
| 1788591306 | 26.11° C | 88% | 1005.2 hPa | 0 mm | - | 154 W/m² | - |
| 1788590706 | 28.89° C | 86% | 1006.6 hPa | 0 mm | - | 452 W/m² | - |
| 1788590106 | 30° C | 76% | 1007.5 hPa | 0 mm | - | 245 W/m² | - |
| 1788589506 | 30.56° C | 67% | 1007.7 hPa | 0 mm | - | 512 W/m² | - |
| 1788588906 | 30° C | 70% | 1007.9 hPa | 0 mm | - | 1087 W/m² | - |
| 1788588306 | 29.44° C | 72% | 1008 hPa | 0 mm | - | 453 W/m² | - |
| 1788587706 | 30° C | 73% | 1008.2 hPa | 0 mm | - | 811 W/m² | - |
| 1788587107 | 29.44° C | 72% | 1008.4 hPa | 0 mm | - | 1196 W/m² | - |
| 1788586506 | 29.44° C | 74% | 1008.4 hPa | 0 mm | - | 458 W/m² | - |
| 1788585906 | 28.33° C | 75% | 1008.4 hPa | 0 mm | - | 1097 W/m² | - |
| 1788585306 | 28.33° C | 76% | 1008.6 hPa | 0 mm | - | 1289 W/m² | - |
* Rain latest hour (hover to see other rain measurements)
** Current wind speed in m/s (hover to see current wind gust speed)